Terminal Aerodrome Forecast
Issued by NWS Cleveland, OH

Home | Current Version | Previous Version | Text Only | Print | Product List | Glossary On
Versions: 1 2 3 4 5 6 7 8 9 10 11 12 13 14 15 16 17 18 19 20 21 22 23 24 25 26
000
FTUS41 KCLE 060900 AAA
TAFCAK
TAF AMD
KCAK 060929Z 0609/0706 20003KT P6SM SKC
     FM061600 22008KT P6SM SCT025 BKN200
     FM061900 22010KT P6SM BKN025
     FM070000 20010KT P6SM BKN050 OVC120=

USA.gov is the U.S. government's official web portal to all federal, state and local government web resources and services.